sensor_id;sensor_type;location;lat;lon;timestamp;P1;durP1;ratioP1;P2;durP2;ratioP2
50781;SDS011;36749;37.428;-121.972;2023-09-30T00:01:24;8.52;;;1.67;;
50781;SDS011;36749;37.428;-121.972;2023-09-30T00:03:50;4.63;;;0.90;;
50781;SDS011;36749;37.428;-121.972;2023-09-30T00:06:16;9.27;;;1.30;;
50781;SDS011;36749;37.428;-121.972;2023-09-30T00:08:43;4.03;;;1.45;;
50781;SDS011;36749;37.428;-121.972;2023-09-30T00:11:09;6.47;;;1.30;;
50781;SDS011;36749;37.428;-121.972;2023-09-30T00:13:36;7.13;;;1.30;;
50781;SDS011;36749;37.428;-121.972;2023-09-30T00:16:02;9.20;;;1.27;;
50781;SDS011;36749;37.428;-121.972;2023-09-30T00:18:28;4.00;;;1.35;;
50781;SDS011;36749;37.428;-121.972;2023-09-30T00:20:55;0.90;;;0.90;;
50781;SDS011;36749;37.428;-121.972;2023-09-30T00:23:22;4.60;;;1.30;;
50781;SDS011;36749;37.428;-121.972;2023-09-30T00:25:49;5.35;;;1.33;;
50781;SDS011;36749;37.428;-121.972;2023-09-30T00:28:15;4.35;;;1.23;;
50781;SDS011;36749;37.428;-121.972;2023-09-30T00:30:41;2.58;;;1.17;;
50781;SDS011;36749;37.428;-121.972;2023-09-30T00:33:11;3.50;;;1.25;;
50781;SDS011;36749;37.428;-121.972;2023-09-30T00:35:37;1.52;;;1.20;;
50781;SDS011;36749;37.428;-121.972;2023-09-30T00:38:03;1.05;;;1.00;;
50781;SDS011;36749;37.428;-121.972;2023-09-30T00:40:29;8.52;;;1.23;;
50781;SDS011;36749;37.428;-121.972;2023-09-30T00:42:56;7.22;;;1.30;;
50781;SDS011;36749;37.428;-121.972;2023-09-30T00:45:22;3.38;;;1.35;;
50781;SDS011;36749;37.428;-121.972;2023-09-30T00:47:48;1.98;;;0.90;;
50781;SDS011;36749;37.428;-121.972;2023-09-30T00:50:14;2.85;;;1.10;;
50781;SDS011;36749;37.428;-121.972;2023-09-30T00:52:41;3.95;;;0.90;;
50781;SDS011;36749;37.428;-121.972;2023-09-30T00:55:08;2.20;;;0.88;;
50781;SDS011;36749;37.428;-121.972;2023-09-30T00:57:36;1.83;;;0.90;;
50781;SDS011;36749;37.428;-121.972;2023-09-30T01:00:03;0.95;;;0.63;;
50781;SDS011;36749;37.428;-121.972;2023-09-30T01:02:29;0.73;;;0.63;;
50781;SDS011;36749;37.428;-121.972;2023-09-30T01:04:56;0.73;;;0.70;;
50781;SDS011;36749;37.428;-121.972;2023-09-30T01:07:23;1.70;;;0.73;;
50781;SDS011;36749;37.428;-121.972;2023-09-30T01:09:50;1.77;;;0.93;;
50781;SDS011;36749;37.428;-121.972;2023-09-30T01:12:16;0.68;;;0.68;;
50781;SDS011;36749;37.428;-121.972;2023-09-30T01:14:42;5.00;;;1.13;;
50781;SDS011;36749;37.428;-121.972;2023-09-30T01:17:09;2.40;;;0.60;;
50781;SDS011;36749;37.428;-121.972;2023-09-30T01:19:38;4.38;;;0.65;;
50781;SDS011;36749;37.428;-121.972;2023-09-30T01:22:05;2.65;;;0.43;;
50781;SDS011;36749;37.428;-121.972;2023-09-30T01:24:40;2.15;;;0.60;;
50781;SDS011;36749;37.428;-121.972;2023-09-30T01:27:08;8.80;;;1.03;;
50781;SDS011;36749;37.428;-121.972;2023-09-30T01:29:34;6.65;;;1.30;;
50781;SDS011;36749;37.428;-121.972;2023-09-30T01:32:04;4.68;;;1.40;;
50781;SDS011;36749;37.428;-121.972;2023-09-30T01:34:35;3.47;;;1.00;;
50781;SDS011;36749;37.428;-121.972;2023-09-30T01:37:02;2.28;;;0.98;;
50781;SDS011;36749;37.428;-121.972;2023-09-30T01:39:28;9.00;;;1.52;;
50781;SDS011;36749;37.428;-121.972;2023-09-30T01:41:59;7.55;;;2.05;;
50781;SDS011;36749;37.428;-121.972;2023-09-30T01:44:25;5.28;;;1.77;;
50781;SDS011;36749;37.428;-121.972;2023-09-30T01:46:52;4.97;;;2.15;;
50781;SDS011;36749;37.428;-121.972;2023-09-30T01:49:18;5.55;;;1.75;;
50781;SDS011;36749;37.428;-121.972;2023-09-30T01:51:45;8.82;;;2.63;;
50781;SDS011;36749;37.428;-121.972;2023-09-30T01:54:11;6.70;;;1.73;;
50781;SDS011;36749;37.428;-121.972;2023-09-30T01:56:37;6.32;;;2.15;;
50781;SDS011;36749;37.428;-121.972;2023-09-30T01:59:03;13.60;;;2.90;;
50781;SDS011;36749;37.428;-121.972;2023-09-30T02:01:30;9.82;;;2.42;;
50781;SDS011;36749;37.428;-121.972;2023-09-30T02:03:56;6.60;;;2.45;;
50781;SDS011;36749;37.428;-121.972;2023-09-30T02:06:22;14.20;;;2.53;;
50781;SDS011;36749;37.428;-121.972;2023-09-30T02:08:49;7.47;;;2.10;;
50781;SDS011;36749;37.428;-121.972;2023-09-30T02:11:15;7.63;;;2.10;;
50781;SDS011;36749;37.428;-121.972;2023-09-30T02:13:42;7.72;;;2.25;;
50781;SDS011;36749;37.428;-121.972;2023-09-30T02:16:13;3.58;;;1.73;;
50781;SDS011;36749;37.428;-121.972;2023-09-30T02:18:39;7.80;;;2.45;;
50781;SDS011;36749;37.428;-121.972;2023-09-30T02:21:07;7.68;;;1.77;;
50781;SDS011;36749;37.428;-121.972;2023-09-30T02:23:36;3.53;;;1.50;;
50781;SDS011;36749;37.428;-121.972;2023-09-30T02:26:02;4.30;;;1.80;;
50781;SDS011;36749;37.428;-121.972;2023-09-30T02:28:29;3.75;;;1.73;;
50781;SDS011;36749;37.428;-121.972;2023-09-30T02:31:00;6.20;;;1.83;;
50781;SDS011;36749;37.428;-121.972;2023-09-30T02:33:26;7.35;;;2.25;;
50781;SDS011;36749;37.428;-121.972;2023-09-30T02:35:52;5.45;;;1.67;;
50781;SDS011;36749;37.428;-121.972;2023-09-30T02:38:19;7.43;;;1.95;;
50781;SDS011;36749;37.428;-121.972;2023-09-30T02:40:47;5.63;;;2.10;;
50781;SDS011;36749;37.428;-121.972;2023-09-30T02:43:13;7.75;;;2.00;;
50781;SDS011;36749;37.428;-121.972;2023-09-30T02:45:40;10.10;;;2.08;;
50781;SDS011;36749;37.428;-121.972;2023-09-30T02:48:06;7.70;;;2.45;;
50781;SDS011;36749;37.428;-121.972;2023-09-30T02:50:33;7.32;;;2.30;;
50781;SDS011;36749;37.428;-121.972;2023-09-30T02:53:00;6.63;;;2.38;;
50781;SDS011;36749;37.428;-121.972;2023-09-30T02:55:26;8.23;;;2.38;;
50781;SDS011;36749;37.428;-121.972;2023-09-30T02:57:52;12.30;;;3.03;;
50781;SDS011;36749;37.428;-121.972;2023-09-30T03:00:19;7.97;;;2.38;;
50781;SDS011;36749;37.428;-121.972;2023-09-30T03:02:59;5.28;;;1.83;;
50781;SDS011;36749;37.428;-121.972;2023-09-30T03:05:26;8.50;;;2.53;;
50781;SDS011;36749;37.428;-121.972;2023-09-30T03:07:53;9.07;;;2.42;;
50781;SDS011;36749;37.428;-121.972;2023-09-30T03:10:20;8.85;;;2.58;;
50781;SDS011;36749;37.428;-121.972;2023-09-30T03:12:49;6.47;;;1.88;;
50781;SDS011;36749;37.428;-121.972;2023-09-30T03:15:16;3.38;;;1.80;;
50781;SDS011;36749;37.428;-121.972;2023-09-30T03:17:42;10.60;;;2.53;;
50781;SDS011;36749;37.428;-121.972;2023-09-30T03:20:09;8.98;;;1.98;;
50781;SDS011;36749;37.428;-121.972;2023-09-30T03:22:40;5.32;;;1.80;;
50781;SDS011;36749;37.428;-121.972;2023-09-30T03:25:12;8.05;;;1.98;;
50781;SDS011;36749;37.428;-121.972;2023-09-30T03:27:41;8.35;;;2.13;;
50781;SDS011;36749;37.428;-121.972;2023-09-30T03:30:07;7.50;;;2.00;;
50781;SDS011;36749;37.428;-121.972;2023-09-30T03:32:34;10.15;;;2.38;;
50781;SDS011;36749;37.428;-121.972;2023-09-30T03:35:04;7.90;;;1.70;;
50781;SDS011;36749;37.428;-121.972;2023-09-30T03:37:31;4.72;;;1.77;;
50781;SDS011;36749;37.428;-121.972;2023-09-30T03:39:57;10.57;;;2.00;;
50781;SDS011;36749;37.428;-121.972;2023-09-30T03:42:24;11.18;;;2.65;;
50781;SDS011;36749;37.428;-121.972;2023-09-30T03:44:50;7.50;;;2.42;;
50781;SDS011;36749;37.428;-121.972;2023-09-30T03:47:17;6.40;;;1.80;;
50781;SDS011;36749;37.428;-121.972;2023-09-30T03:49:44;8.27;;;2.03;;
50781;SDS011;36749;37.428;-121.972;2023-09-30T03:52:10;10.13;;;2.30;;
50781;SDS011;36749;37.428;-121.972;2023-09-30T03:54:39;5.53;;;1.83;;
50781;SDS011;36749;37.428;-121.972;2023-09-30T03:57:07;8.77;;;1.95;;
50781;SDS011;36749;37.428;-121.972;2023-09-30T03:59:33;8.13;;;2.25;;
50781;SDS011;36749;37.428;-121.972;2023-09-30T04:01:59;5.90;;;1.90;;
50781;SDS011;36749;37.428;-121.972;2023-09-30T04:04:26;5.47;;;1.55;;
50781;SDS011;36749;37.428;-121.972;2023-09-30T04:06:52;5.40;;;1.73;;
50781;SDS011;36749;37.428;-121.972;2023-09-30T04:09:19;4.35;;;1.42;;
50781;SDS011;36749;37.428;-121.972;2023-09-30T04:11:45;7.18;;;1.67;;
50781;SDS011;36749;37.428;-121.972;2023-09-30T04:14:11;4.75;;;1.45;;
50781;SDS011;36749;37.428;-121.972;2023-09-30T04:16:38;7.80;;;2.13;;
50781;SDS011;36749;37.428;-121.972;2023-09-30T04:19:04;5.63;;;1.70;;
50781;SDS011;36749;37.428;-121.972;2023-09-30T04:21:33;5.50;;;1.70;;
50781;SDS011;36749;37.428;-121.972;2023-09-30T04:23:59;6.50;;;1.88;;
50781;SDS011;36749;37.428;-121.972;2023-09-30T04:26:26;9.38;;;1.60;;
50781;SDS011;36749;37.428;-121.972;2023-09-30T04:28:52;5.35;;;1.40;;
50781;SDS011;36749;37.428;-121.972;2023-09-30T04:31:19;5.78;;;1.70;;
50781;SDS011;36749;37.428;-121.972;2023-09-30T04:33:49;5.80;;;1.65;;
50781;SDS011;36749;37.428;-121.972;2023-09-30T04:36:16;7.07;;;1.58;;
50781;SDS011;36749;37.428;-121.972;2023-09-30T04:38:42;8.90;;;1.77;;
50781;SDS011;36749;37.428;-121.972;2023-09-30T04:41:09;4.28;;;1.23;;
50781;SDS011;36749;37.428;-121.972;2023-09-30T04:43:35;4.75;;;1.40;;
50781;SDS011;36749;37.428;-121.972;2023-09-30T04:46:05;6.85;;;2.35;;
50781;SDS011;36749;37.428;-121.972;2023-09-30T04:48:33;5.53;;;1.55;;
50781;SDS011;36749;37.428;-121.972;2023-09-30T04:50:59;8.93;;;1.40;;
50781;SDS011;36749;37.428;-121.972;2023-09-30T04:53:30;11.88;;;1.92;;
50781;SDS011;36749;37.428;-121.972;2023-09-30T04:55:59;11.30;;;4.00;;
50781;SDS011;36749;37.428;-121.972;2023-09-30T04:58:26;7.03;;;2.72;;
50781;SDS011;36749;37.428;-121.972;2023-09-30T05:00:54;8.10;;;2.05;;
50781;SDS011;36749;37.428;-121.972;2023-09-30T05:03:21;10.55;;;2.05;;
50781;SDS011;36749;37.428;-121.972;2023-09-30T05:05:50;5.28;;;1.67;;
50781;SDS011;36749;37.428;-121.972;2023-09-30T05:08:19;6.20;;;1.85;;
50781;SDS011;36749;37.428;-121.972;2023-09-30T05:10:45;4.85;;;1.50;;
50781;SDS011;36749;37.428;-121.972;2023-09-30T05:13:11;5.88;;;1.30;;
50781;SDS011;36749;37.428;-121.972;2023-09-30T05:15:37;5.25;;;1.40;;
50781;SDS011;36749;37.428;-121.972;2023-09-30T05:18:03;3.83;;;1.40;;
50781;SDS011;36749;37.428;-121.972;2023-09-30T05:20:30;6.85;;;2.72;;
50781;SDS011;36749;37.428;-121.972;2023-09-30T05:22:56;10.15;;;1.85;;
50781;SDS011;36749;37.428;-121.972;2023-09-30T05:25:22;8.65;;;1.90;;
50781;SDS011;36749;37.428;-121.972;2023-09-30T05:27:51;5.35;;;1.50;;
50781;SDS011;36749;37.428;-121.972;2023-09-30T05:30:18;7.85;;;1.75;;
50781;SDS011;36749;37.428;-121.972;2023-09-30T05:32:45;4.43;;;1.40;;
50781;SDS011;36749;37.428;-121.972;2023-09-30T05:35:12;8.50;;;2.25;;
50781;SDS011;36749;37.428;-121.972;2023-09-30T05:37:39;4.35;;;1.52;;
50781;SDS011;36749;37.428;-121.972;2023-09-30T05:40:06;6.55;;;2.17;;
50781;SDS011;36749;37.428;-121.972;2023-09-30T05:42:43;4.95;;;1.63;;
50781;SDS011;36749;37.428;-121.972;2023-09-30T05:45:10;4.80;;;1.85;;
50781;SDS011;36749;37.428;-121.972;2023-09-30T05:47:39;10.70;;;2.03;;
50781;SDS011;36749;37.428;-121.972;2023-09-30T05:50:06;7.85;;;2.08;;
50781;SDS011;36749;37.428;-121.972;2023-09-30T05:52:34;6.40;;;1.80;;
50781;SDS011;36749;37.428;-121.972;2023-09-30T05:55:01;7.10;;;2.33;;
50781;SDS011;36749;37.428;-121.972;2023-09-30T05:57:28;5.72;;;1.75;;
50781;SDS011;36749;37.428;-121.972;2023-09-30T05:59:55;6.82;;;1.83;;
50781;SDS011;36749;37.428;-121.972;2023-09-30T06:02:21;6.90;;;1.98;;
50781;SDS011;36749;37.428;-121.972;2023-09-30T06:04:47;6.20;;;1.90;;
50781;SDS011;36749;37.428;-121.972;2023-09-30T06:07:15;7.15;;;2.17;;
50781;SDS011;36749;37.428;-121.972;2023-09-30T06:09:41;4.90;;;2.05;;
50781;SDS011;36749;37.428;-121.972;2023-09-30T06:12:08;12.05;;;2.10;;
50781;SDS011;36749;37.428;-121.972;2023-09-30T06:14:37;5.32;;;1.95;;
50781;SDS011;36749;37.428;-121.972;2023-09-30T06:17:03;6.60;;;1.77;;
50781;SDS011;36749;37.428;-121.972;2023-09-30T06:19:30;4.78;;;1.90;;
50781;SDS011;36749;37.428;-121.972;2023-09-30T06:21:57;8.57;;;1.83;;
50781;SDS011;36749;37.428;-121.972;2023-09-30T06:24:23;7.25;;;2.20;;
50781;SDS011;36749;37.428;-121.972;2023-09-30T06:26:49;8.05;;;2.08;;
50781;SDS011;36749;37.428;-121.972;2023-09-30T06:29:38;8.95;;;1.92;;
50781;SDS011;36749;37.428;-121.972;2023-09-30T06:32:07;8.85;;;1.95;;
50781;SDS011;36749;37.428;-121.972;2023-09-30T06:34:34;4.72;;;1.70;;
50781;SDS011;36749;37.428;-121.972;2023-09-30T06:37:00;9.77;;;2.40;;
50781;SDS011;36749;37.428;-121.972;2023-09-30T06:39:26;3.80;;;1.55;;
50781;SDS011;36749;37.428;-121.972;2023-09-30T06:41:54;9.50;;;2.15;;
50781;SDS011;36749;37.428;-121.972;2023-09-30T06:44:20;10.07;;;2.92;;
50781;SDS011;36749;37.428;-121.972;2023-09-30T06:46:49;5.57;;;2.08;;
50781;SDS011;36749;37.428;-121.972;2023-09-30T06:49:16;8.32;;;2.38;;
50781;SDS011;36749;37.428;-121.972;2023-09-30T06:51:42;6.55;;;2.10;;
50781;SDS011;36749;37.428;-121.972;2023-09-30T06:54:08;6.82;;;2.00;;
50781;SDS011;36749;37.428;-121.972;2023-09-30T06:56:34;8.50;;;2.28;;
50781;SDS011;36749;37.428;-121.972;2023-09-30T06:59:01;10.90;;;2.20;;
50781;SDS011;36749;37.428;-121.972;2023-09-30T07:01:27;7.68;;;2.13;;
50781;SDS011;36749;37.428;-121.972;2023-09-30T07:03:54;4.35;;;1.98;;
50781;SDS011;36749;37.428;-121.972;2023-09-30T07:06:24;7.13;;;2.10;;
50781;SDS011;36749;37.428;-121.972;2023-09-30T07:08:50;9.13;;;2.00;;
50781;SDS011;36749;37.428;-121.972;2023-09-30T07:11:17;6.72;;;2.25;;
50781;SDS011;36749;37.428;-121.972;2023-09-30T07:13:44;6.45;;;2.03;;
50781;SDS011;36749;37.428;-121.972;2023-09-30T07:16:11;17.42;;;2.30;;
50781;SDS011;36749;37.428;-121.972;2023-09-30T07:18:37;7.93;;;1.95;;
50781;SDS011;36749;37.428;-121.972;2023-09-30T07:21:03;10.68;;;2.22;;
50781;SDS011;36749;37.428;-121.972;2023-09-30T07:23:30;10.20;;;2.40;;
50781;SDS011;36749;37.428;-121.972;2023-09-30T07:25:57;6.47;;;1.83;;
50781;SDS011;36749;37.428;-121.972;2023-09-30T07:28:23;7.72;;;2.83;;
50781;SDS011;36749;37.428;-121.972;2023-09-30T07:30:49;6.38;;;2.33;;
50781;SDS011;36749;37.428;-121.972;2023-09-30T07:33:15;7.35;;;1.98;;
50781;SDS011;36749;37.428;-121.972;2023-09-30T07:35:41;7.93;;;2.03;;
50781;SDS011;36749;37.428;-121.972;2023-09-30T07:38:08;10.25;;;1.40;;
50781;SDS011;36749;37.428;-121.972;2023-09-30T07:40:34;5.18;;;1.80;;
50781;SDS011;36749;37.428;-121.972;2023-09-30T07:43:00;7.80;;;1.70;;
50781;SDS011;36749;37.428;-121.972;2023-09-30T07:45:26;7.97;;;1.60;;
50781;SDS011;36749;37.428;-121.972;2023-09-30T07:47:53;7.50;;;2.40;;
50781;SDS011;36749;37.428;-121.972;2023-09-30T07:50:19;6.75;;;3.03;;
50781;SDS011;36749;37.428;-121.972;2023-09-30T07:52:46;8.23;;;2.40;;
50781;SDS011;36749;37.428;-121.972;2023-09-30T07:55:12;6.15;;;2.40;;
50781;SDS011;36749;37.428;-121.972;2023-09-30T07:57:39;7.15;;;2.28;;
50781;SDS011;36749;37.428;-121.972;2023-09-30T08:00:07;8.68;;;2.10;;
50781;SDS011;36749;37.428;-121.972;2023-09-30T08:02:35;10.57;;;1.67;;
50781;SDS011;36749;37.428;-121.972;2023-09-30T08:05:02;9.25;;;2.05;;
50781;SDS011;36749;37.428;-121.972;2023-09-30T08:07:29;6.63;;;2.42;;
50781;SDS011;36749;37.428;-121.972;2023-09-30T08:09:55;7.50;;;1.83;;
50781;SDS011;36749;37.428;-121.972;2023-09-30T08:12:21;5.63;;;1.67;;
50781;SDS011;36749;37.428;-121.972;2023-09-30T08:14:47;9.60;;;1.83;;
50781;SDS011;36749;37.428;-121.972;2023-09-30T08:17:14;8.10;;;2.30;;
50781;SDS011;36749;37.428;-121.972;2023-09-30T08:19:41;7.03;;;1.90;;
50781;SDS011;36749;37.428;-121.972;2023-09-30T08:22:07;7.97;;;1.60;;
50781;SDS011;36749;37.428;-121.972;2023-09-30T08:24:35;7.43;;;1.70;;
50781;SDS011;36749;37.428;-121.972;2023-09-30T08:27:01;5.85;;;1.48;;
50781;SDS011;36749;37.428;-121.972;2023-09-30T08:29:27;8.65;;;1.95;;
50781;SDS011;36749;37.428;-121.972;2023-09-30T08:31:53;10.13;;;2.25;;
50781;SDS011;36749;37.428;-121.972;2023-09-30T08:34:20;6.30;;;1.80;;
50781;SDS011;36749;37.428;-121.972;2023-09-30T08:36:47;7.53;;;1.77;;
50781;SDS011;36749;37.428;-121.972;2023-09-30T08:39:13;9.63;;;2.10;;
50781;SDS011;36749;37.428;-121.972;2023-09-30T08:41:39;6.60;;;1.85;;
50781;SDS011;36749;37.428;-121.972;2023-09-30T08:44:05;5.65;;;1.80;;
50781;SDS011;36749;37.428;-121.972;2023-09-30T08:46:33;10.30;;;1.98;;
50781;SDS011;36749;37.428;-121.972;2023-09-30T08:49:00;8.48;;;2.15;;
50781;SDS011;36749;37.428;-121.972;2023-09-30T08:51:28;13.45;;;2.33;;
50781;SDS011;36749;37.428;-121.972;2023-09-30T08:53:56;8.25;;;2.00;;
50781;SDS011;36749;37.428;-121.972;2023-09-30T08:56:24;10.15;;;2.60;;
50781;SDS011;36749;37.428;-121.972;2023-09-30T08:58:54;12.93;;;2.15;;
50781;SDS011;36749;37.428;-121.972;2023-09-30T09:01:23;6.70;;;1.70;;
50781;SDS011;36749;37.428;-121.972;2023-09-30T09:03:50;7.80;;;2.35;;
50781;SDS011;36749;37.428;-121.972;2023-09-30T09:06:18;5.30;;;1.90;;
50781;SDS011;36749;37.428;-121.972;2023-09-30T09:08:48;7.38;;;1.67;;
50781;SDS011;36749;37.428;-121.972;2023-09-30T09:11:14;7.70;;;2.17;;
50781;SDS011;36749;37.428;-121.972;2023-09-30T09:13:47;11.60;;;2.63;;
50781;SDS011;36749;37.428;-121.972;2023-09-30T09:16:15;6.65;;;1.90;;
50781;SDS011;36749;37.428;-121.972;2023-09-30T09:18:45;8.90;;;2.20;;
50781;SDS011;36749;37.428;-121.972;2023-09-30T09:21:13;8.07;;;1.85;;
50781;SDS011;36749;37.428;-121.972;2023-09-30T09:23:42;5.35;;;1.80;;
50781;SDS011;36749;37.428;-121.972;2023-09-30T09:26:12;10.73;;;1.88;;
50781;SDS011;36749;37.428;-121.972;2023-09-30T09:28:59;12.73;;;2.33;;
50781;SDS011;36749;37.428;-121.972;2023-09-30T09:31:27;8.50;;;1.65;;
50781;SDS011;36749;37.428;-121.972;2023-09-30T09:33:54;8.20;;;1.95;;
50781;SDS011;36749;37.428;-121.972;2023-09-30T09:36:20;14.68;;;2.42;;
50781;SDS011;36749;37.428;-121.972;2023-09-30T09:38:48;8.38;;;1.90;;
50781;SDS011;36749;37.428;-121.972;2023-09-30T09:41:19;6.20;;;2.05;;
50781;SDS011;36749;37.428;-121.972;2023-09-30T09:43:49;6.38;;;2.05;;
50781;SDS011;36749;37.428;-121.972;2023-09-30T09:46:16;13.55;;;2.72;;
50781;SDS011;36749;37.428;-121.972;2023-09-30T09:48:43;6.50;;;2.22;;
50781;SDS011;36749;37.428;-121.972;2023-09-30T09:51:11;4.43;;;2.10;;
50781;SDS011;36749;37.428;-121.972;2023-09-30T09:53:40;5.88;;;1.70;;
50781;SDS011;36749;37.428;-121.972;2023-09-30T09:56:10;6.95;;;2.30;;
50781;SDS011;36749;37.428;-121.972;2023-09-30T09:58:38;8.45;;;2.30;;
50781;SDS011;36749;37.428;-121.972;2023-09-30T10:01:08;8.70;;;2.20;;
50781;SDS011;36749;37.428;-121.972;2023-09-30T10:03:36;8.73;;;2.30;;
50781;SDS011;36749;37.428;-121.972;2023-09-30T10:06:03;6.68;;;2.15;;
50781;SDS011;36749;37.428;-121.972;2023-09-30T10:08:42;9.18;;;2.60;;
50781;SDS011;36749;37.428;-121.972;2023-09-30T10:11:16;8.52;;;2.25;;
50781;SDS011;36749;37.428;-121.972;2023-09-30T10:13:56;7.28;;;2.42;;
50781;SDS011;36749;37.428;-121.972;2023-09-30T10:19:10;10.90;;;2.58;;
50781;SDS011;36749;37.428;-121.972;2023-09-30T10:21:38;7.40;;;2.42;;
50781;SDS011;36749;37.428;-121.972;2023-09-30T10:35:16;13.05;;;3.33;;
50781;SDS011;36749;37.428;-121.972;2023-09-30T10:37:43;5.55;;;2.30;;
50781;SDS011;36749;37.428;-121.972;2023-09-30T10:40:25;9.30;;;2.20;;
50781;SDS011;36749;37.428;-121.972;2023-09-30T10:42:52;7.10;;;2.38;;
50781;SDS011;36749;37.428;-121.972;2023-09-30T10:51:00;7.00;;;2.33;;
50781;SDS011;36749;37.428;-121.972;2023-09-30T10:53:43;5.85;;;2.25;;
50781;SDS011;36749;37.428;-121.972;2023-09-30T10:56:14;8.02;;;2.22;;
50781;SDS011;36749;37.428;-121.972;2023-09-30T10:58:47;5.65;;;2.22;;
50781;SDS011;36749;37.428;-121.972;2023-09-30T11:01:16;6.47;;;2.20;;
50781;SDS011;36749;37.428;-121.972;2023-09-30T11:03:49;2.60;;;1.60;;
50781;SDS011;36749;37.428;-121.972;2023-09-30T11:06:21;4.07;;;1.92;;
50781;SDS011;36749;37.428;-121.972;2023-09-30T11:08:57;4.10;;;1.55;;
50781;SDS011;36749;37.428;-121.972;2023-09-30T11:11:32;6.30;;;1.77;;
50781;SDS011;36749;37.428;-121.972;2023-09-30T11:16:44;6.47;;;1.73;;
50781;SDS011;36749;37.428;-121.972;2023-09-30T11:19:11;3.63;;;1.60;;
50781;SDS011;36749;37.428;-121.972;2023-09-30T11:21:41;8.60;;;1.80;;
50781;SDS011;36749;37.428;-121.972;2023-09-30T11:24:11;4.30;;;1.92;;
50781;SDS011;36749;37.428;-121.972;2023-09-30T11:26:39;6.68;;;1.60;;
50781;SDS011;36749;37.428;-121.972;2023-09-30T11:29:09;9.05;;;2.17;;
50781;SDS011;36749;37.428;-121.972;2023-09-30T11:31:42;5.38;;;1.73;;
50781;SDS011;36749;37.428;-121.972;2023-09-30T11:34:10;9.93;;;1.90;;
50781;SDS011;36749;37.428;-121.972;2023-09-30T11:36:37;5.43;;;1.67;;
50781;SDS011;36749;37.428;-121.972;2023-09-30T11:39:08;4.60;;;1.48;;
50781;SDS011;36749;37.428;-121.972;2023-09-30T11:41:39;7.95;;;2.22;;
50781;SDS011;36749;37.428;-121.972;2023-09-30T11:44:10;10.45;;;2.35;;
50781;SDS011;36749;37.428;-121.972;2023-09-30T11:46:48;3.60;;;1.67;;
50781;SDS011;36749;37.428;-121.972;2023-09-30T11:51:52;5.90;;;1.80;;
50781;SDS011;36749;37.428;-121.972;2023-09-30T11:54:19;6.03;;;1.90;;
50781;SDS011;36749;37.428;-121.972;2023-09-30T11:56:47;5.53;;;1.45;;
50781;SDS011;36749;37.428;-121.972;2023-09-30T11:59:16;5.30;;;1.90;;
50781;SDS011;36749;37.428;-121.972;2023-09-30T12:01:45;4.45;;;1.77;;
50781;SDS011;36749;37.428;-121.972;2023-09-30T12:04:14;3.25;;;1.90;;
50781;SDS011;36749;37.428;-121.972;2023-09-30T12:06:43;5.75;;;1.63;;
50781;SDS011;36749;37.428;-121.972;2023-09-30T12:09:09;7.85;;;2.10;;
50781;SDS011;36749;37.428;-121.972;2023-09-30T12:11:39;8.68;;;2.30;;
50781;SDS011;36749;37.428;-121.972;2023-09-30T12:14:12;8.27;;;2.30;;
50781;SDS011;36749;37.428;-121.972;2023-09-30T12:16:39;6.80;;;1.70;;
50781;SDS011;36749;37.428;-121.972;2023-09-30T12:19:06;5.32;;;1.65;;
50781;SDS011;36749;37.428;-121.972;2023-09-30T12:21:33;5.90;;;1.98;;
50781;SDS011;36749;37.428;-121.972;2023-09-30T12:24:01;6.68;;;1.60;;
50781;SDS011;36749;37.428;-121.972;2023-09-30T12:26:31;6.22;;;1.92;;
50781;SDS011;36749;37.428;-121.972;2023-09-30T12:28:58;9.65;;;2.65;;
50781;SDS011;36749;37.428;-121.972;2023-09-30T12:31:24;5.65;;;1.55;;
50781;SDS011;36749;37.428;-121.972;2023-09-30T12:33:50;5.82;;;1.83;;
50781;SDS011;36749;37.428;-121.972;2023-09-30T12:36:23;7.53;;;1.58;;
50781;SDS011;36749;37.428;-121.972;2023-09-30T12:38:49;7.00;;;2.10;;
50781;SDS011;36749;37.428;-121.972;2023-09-30T12:41:16;4.88;;;1.35;;
50781;SDS011;36749;37.428;-121.972;2023-09-30T12:43:44;7.05;;;1.60;;
50781;SDS011;36749;37.428;-121.972;2023-09-30T12:46:10;8.95;;;2.38;;
50781;SDS011;36749;37.428;-121.972;2023-09-30T12:48:39;10.82;;;1.98;;
50781;SDS011;36749;37.428;-121.972;2023-09-30T12:51:06;7.57;;;2.00;;
50781;SDS011;36749;37.428;-121.972;2023-09-30T12:53:32;3.85;;;1.52;;
50781;SDS011;36749;37.428;-121.972;2023-09-30T12:55:59;6.55;;;1.52;;
50781;SDS011;36749;37.428;-121.972;2023-09-30T12:58:26;4.30;;;1.30;;
50781;SDS011;36749;37.428;-121.972;2023-09-30T13:00:55;4.22;;;0.88;;
50781;SDS011;36749;37.428;-121.972;2023-09-30T13:03:22;6.25;;;1.77;;
50781;SDS011;36749;37.428;-121.972;2023-09-30T13:05:49;5.60;;;1.60;;
50781;SDS011;36749;37.428;-121.972;2023-09-30T13:08:16;1.80;;;1.20;;
50781;SDS011;36749;37.428;-121.972;2023-09-30T13:10:42;7.10;;;1.52;;
50781;SDS011;36749;37.428;-121.972;2023-09-30T13:13:09;3.05;;;1.50;;
50781;SDS011;36749;37.428;-121.972;2023-09-30T13:15:36;7.45;;;2.03;;
50781;SDS011;36749;37.428;-121.972;2023-09-30T13:18:03;4.88;;;1.65;;
50781;SDS011;36749;37.428;-121.972;2023-09-30T13:20:31;4.70;;;1.20;;
50781;SDS011;36749;37.428;-121.972;2023-09-30T13:22:57;6.55;;;1.67;;
50781;SDS011;36749;37.428;-121.972;2023-09-30T13:25:24;5.68;;;1.52;;
50781;SDS011;36749;37.428;-121.972;2023-09-30T13:27:51;4.00;;;1.40;;
50781;SDS011;36749;37.428;-121.972;2023-09-30T13:30:18;3.20;;;1.42;;
50781;SDS011;36749;37.428;-121.972;2023-09-30T13:32:44;3.47;;;1.13;;
50781;SDS011;36749;37.428;-121.972;2023-09-30T13:35:10;6.63;;;1.63;;
50781;SDS011;36749;37.428;-121.972;2023-09-30T13:37:36;7.32;;;1.65;;
50781;SDS011;36749;37.428;-121.972;2023-09-30T13:40:03;4.85;;;1.20;;
50781;SDS011;36749;37.428;-121.972;2023-09-30T13:42:30;2.97;;;1.45;;
50781;SDS011;36749;37.428;-121.972;2023-09-30T13:44:56;4.57;;;1.15;;
50781;SDS011;36749;37.428;-121.972;2023-09-30T13:47:23;4.75;;;1.30;;
50781;SDS011;36749;37.428;-121.972;2023-09-30T13:49:50;2.58;;;1.25;;
50781;SDS011;36749;37.428;-121.972;2023-09-30T13:52:16;6.90;;;1.83;;
50781;SDS011;36749;37.428;-121.972;2023-09-30T13:54:43;4.43;;;1.20;;
50781;SDS011;36749;37.428;-121.972;2023-09-30T13:57:09;2.90;;;1.50;;
50781;SDS011;36749;37.428;-121.972;2023-09-30T13:59:35;1.92;;;1.33;;
50781;SDS011;36749;37.428;-121.972;2023-09-30T14:02:02;1.85;;;1.00;;
50781;SDS011;36749;37.428;-121.972;2023-09-30T14:04:31;3.55;;;1.25;;
50781;SDS011;36749;37.428;-121.972;2023-09-30T14:06:58;2.25;;;1.00;;
50781;SDS011;36749;37.428;-121.972;2023-09-30T14:09:28;2.42;;;0.95;;
50781;SDS011;36749;37.428;-121.972;2023-09-30T14:11:54;3.13;;;1.20;;
50781;SDS011;36749;37.428;-121.972;2023-09-30T14:14:21;1.58;;;1.23;;
50781;SDS011;36749;37.428;-121.972;2023-09-30T14:16:47;2.72;;;1.30;;
50781;SDS011;36749;37.428;-121.972;2023-09-30T14:19:13;4.60;;;1.60;;
50781;SDS011;36749;37.428;-121.972;2023-09-30T14:21:40;5.53;;;1.63;;
50781;SDS011;36749;37.428;-121.972;2023-09-30T14:24:06;4.72;;;1.58;;
50781;SDS011;36749;37.428;-121.972;2023-09-30T14:26:33;5.47;;;1.50;;
50781;SDS011;36749;37.428;-121.972;2023-09-30T14:29:00;8.20;;;2.08;;
50781;SDS011;36749;37.428;-121.972;2023-09-30T14:31:26;8.15;;;2.55;;
50781;SDS011;36749;37.428;-121.972;2023-09-30T14:33:52;8.27;;;2.75;;
50781;SDS011;36749;37.428;-121.972;2023-09-30T14:36:19;10.73;;;3.13;;